Time;durP1;ratioP1;P1;durP2;ratioP2;P2;SDS_P1;SDS_P2;PMS_P1;PMS_P2;Temp;Humidity;BMP_temperature;BMP_pressure;BME280_temperature;BME280_humidity;BME280_pressure;Samples;Min_cycle;Max_cycle;Signal;HPM_P1;HPM_P2
2021/09/24 00:02:01;;;;;;;;;;;;;;;21.57;56.72;101152.78;5094134;28;1701;-45
2021/09/24 00:04:30;;;;;;;;;;;;;;;21.54;56.68;101137.75;5095170;28;1804;-45
2021/09/24 00:06:57;;;;;;;;;;;;;;;21.52;56.07;101137.06;5078520;28;2350;-44
2021/09/24 00:09:31;;;;;;;;;;;;;;;21.54;55.98;101151.22;5081627;28;1923;-45
2021/09/24 00:12:00;;;;;;;;;;;;;;;21.53;55.97;101154.91;5091172;28;1647;-44
2021/09/24 00:14:32;;;;;;;;;;;;;;;21.50;56.05;101149.78;5091080;28;2075;-45
2021/09/24 00:17:00;;;;;;;;;;;;;;;21.50;56.22;101146.25;5083285;28;1742;-44
2021/09/24 00:19:27;;;;;;;;;;;;;;;21.48;55.95;101134.78;5082682;28;1933;-44
2021/09/24 00:24:36;;;;;;;;;;;;;;;21.47;55.87;101139.34;5085747;28;2699;-45
2021/09/24 00:27:03;;;;;;;;;;;;;;;21.47;56.01;101139.34;5092870;28;1979;-44
2021/09/24 00:29:32;;;;;;;;;;;;;;;21.47;56.72;101138.47;5094433;28;1842;-44
2021/09/24 00:31:59;;;;;;;;;;;;;;;21.49;55.81;101139.16;5079835;28;1796;-45
2021/09/24 00:34:27;;;;;;;;;;;;;;;21.49;55.83;101136.47;5086392;28;1791;-45
2021/09/24 00:36:56;;;;;;;;;;;;;;;21.48;55.86;101121.34;5075357;28;1014;-44
2021/09/24 00:39:22;;;;;;;;;;;;;;;21.52;56.31;101141.59;5084544;28;1917;-44
2021/09/24 00:41:50;;;;;;;;;;;;;;;21.47;56.35;101135.78;5083505;28;2041;-44
2021/09/24 00:44:16;;;;;;;;;;;;;;;21.47;55.86;101133.09;5086797;28;1533;-44
2021/09/24 00:46:46;;;;;;;;;;;;;;;21.50;56.81;101128.28;5093291;28;1905;-45
2021/09/24 00:49:14;;;;;;;;;;;;;;;21.45;55.69;101127.88;5093686;28;1999;-45
2021/09/24 00:51:42;;;;;;;;;;;;;;;21.43;55.91;101128.00;5093282;28;1759;-44
2021/09/24 00:54:09;;;;;;;;;;;;;;;21.50;55.87;101143.56;5082488;28;1844;-45
2021/09/24 00:56:38;;;;;;;;;;;;;;;21.43;55.96;101129.84;5087183;28;1861;-44
2021/09/24 00:59:05;;;;;;;;;;;;;;;21.44;56.70;101127.00;5090892;28;1788;-45
2021/09/24 01:01:31;;;;;;;;;;;;;;;21.45;55.83;101131.41;5092271;28;1966;-44
2021/09/24 01:04:00;;;;;;;;;;;;;;;21.44;56.25;101135.06;5082258;28;1305;-45
2021/09/24 01:06:28;;;;;;;;;;;;;;;21.44;56.71;101127.00;5087621;28;1906;-45
2021/09/24 01:08:55;;;;;;;;;;;;;;;21.44;56.79;101118.09;5092071;28;1439;-44
2021/09/24 01:11:23;;;;;;;;;;;;;;;21.48;56.37;101124.88;5094260;28;1860;-45
2021/09/24 01:13:51;;;;;;;;;;;;;;;21.45;56.17;101127.88;5085601;28;1752;-45
2021/09/24 01:16:17;;;;;;;;;;;;;;;21.45;56.73;101131.41;5088062;28;1867;-45
2021/09/24 01:18:44;;;;;;;;;;;;;;;21.44;56.60;101129.69;5089997;28;2079;-46
2021/09/24 01:21:15;;;;;;;;;;;;;;;21.41;55.80;101111.13;5083271;28;1095;-45
2021/09/24 01:23:46;;;;;;;;;;;;;;;21.41;56.21;101108.44;5083101;28;1950;-45
2021/09/24 01:26:16;;;;;;;;;;;;;;;21.40;55.79;101101.34;5078017;28;1928;-44
2021/09/24 01:28:44;;;;;;;;;;;;;;;21.39;56.29;101099.66;5084295;28;1942;-45
2021/09/24 01:31:13;;;;;;;;;;;;;;;21.39;55.79;101096.97;5093548;28;1620;-46
2021/09/24 01:33:45;;;;;;;;;;;;;;;21.41;55.65;101103.06;5087632;28;1756;-45
2021/09/24 01:36:17;;;;;;;;;;;;;;;21.41;55.86;101096.84;5075024;28;1680;-45
2021/09/24 01:38:44;;;;;;;;;;;;;;;21.40;56.69;101100.50;5087550;28;1969;-44
2021/09/24 01:41:14;;;;;;;;;;;;;;;21.40;55.95;101097.81;5089521;28;1789;-44
2021/09/24 01:43:48;;;;;;;;;;;;;;;21.39;55.87;101099.66;5087447;28;1553;-45
2021/09/24 01:46:14;;;;;;;;;;;;;;;21.39;55.87;101091.59;5078153;28;1976;-45
2021/09/24 01:48:45;;;;;;;;;;;;;;;21.40;55.76;101105.88;5091208;28;1951;-45
2021/09/24 01:51:11;;;;;;;;;;;;;;;21.40;56.20;101116.63;5081630;28;1276;-45
2021/09/24 01:53:43;;;;;;;;;;;;;;;21.39;56.30;101104.19;5086713;28;1772;-44
2021/09/24 01:56:14;;;;;;;;;;;;;;;21.39;55.85;101112.28;5092770;28;1737;-44
2021/09/24 01:58:48;;;;;;;;;;;;;;;21.37;56.65;101108.88;5091890;28;1677;-45
2021/09/24 02:01:15;;;;;;;;;;;;;;;21.39;56.54;101112.28;5204456;22;3637;-48
2021/09/24 02:03:42;;;;;;;;;;;;;;;21.39;55.73;101115.81;5084873;28;1516;-44
2021/09/24 02:06:09;;;;;;;;;;;;;;;21.34;55.80;101101.91;5081404;28;1906;-44
2021/09/24 02:08:36;;;;;;;;;;;;;;;21.36;56.79;101104.47;5076066;28;1756;-44
2021/09/24 02:11:05;;;;;;;;;;;;;;;21.41;56.84;101118.34;5088299;28;1637;-44
2021/09/24 02:13:32;;;;;;;;;;;;;;;21.36;56.31;101107.16;5083677;28;1773;-45
2021/09/24 02:15:58;;;;;;;;;;;;;;;21.38;55.97;101108.69;5089555;28;1103;-45
2021/09/24 02:18:26;;;;;;;;;;;;;;;21.34;55.89;101107.28;5078980;28;1808;-45
2021/09/24 02:20:52;;;;;;;;;;;;;;;21.36;55.78;101110.69;5078863;28;1812;-44
2021/09/24 02:23:19;;;;;;;;;;;;;;;21.36;56.08;101121.44;5087565;28;1568;-43
2021/09/24 02:25:45;;;;;;;;;;;;;;;21.40;56.27;101113.94;5083755;28;1465;-44
2021/09/24 02:28:18;;;;;;;;;;;;;;;21.36;56.56;101110.69;5084137;28;1982;-44
2021/09/24 02:30:44;;;;;;;;;;;;;;;21.34;56.20;101112.69;5085440;28;1512;-44
2021/09/24 02:33:11;;;;;;;;;;;;;;;21.34;55.84;101101.06;5090869;28;1671;-44
2021/09/24 02:35:37;;;;;;;;;;;;;;;21.34;56.75;101106.44;5080617;28;1835;-44
2021/09/24 02:38:05;;;;;;;;;;;;;;;21.34;56.73;101107.28;5072814;28;1007;-44
2021/09/24 02:40:32;;;;;;;;;;;;;;;21.33;56.41;101105.63;5088396;28;1071;-44
2021/09/24 02:42:58;;;;;;;;;;;;;;;21.36;57.40;101102.63;5044674;28;12467;-45
2021/09/24 02:45:26;;;;;;;;;;;;;;;21.39;56.43;101104.19;5025586;28;1589;-44
2021/09/24 02:47:53;;;;;;;;;;;;;;;21.38;57.07;101100.63;5017477;28;1902;-45
2021/09/24 02:50:19;;;;;;;;;;;;;;;21.39;57.12;101107.72;5020858;28;1676;-44
2021/09/24 02:52:46;;;;;;;;;;;;;;;21.40;56.57;101106.72;5024725;28;2275;-44
2021/09/24 02:55:14;;;;;;;;;;;;;;;21.38;57.53;101097.94;5021884;28;1788;-44
2021/09/24 02:57:40;;;;;;;;;;;;;;;21.38;57.06;101114.09;5021758;28;1607;-45
2021/09/24 03:00:08;;;;;;;;;;;;;;;21.36;57.14;101097.25;5021151;28;1090;-44
2021/09/24 03:02:36;;;;;;;;;;;;;;;21.35;57.28;101100.94;5020260;28;1300;-44
2021/09/24 03:05:03;;;;;;;;;;;;;;;21.41;56.97;101108.44;5019746;28;1699;-44
2021/09/24 03:07:29;;;;;;;;;;;;;;;21.37;57.92;101092.72;5029957;28;1976;-44
2021/09/24 03:09:56;;;;;;;;;;;;;;;21.36;58.01;101094.56;5021208;28;1744;-46
2021/09/24 03:12:22;;;;;;;;;;;;;;;21.35;57.92;101092.03;5022823;28;1869;-45
2021/09/24 03:14:49;;;;;;;;;;;;;;;21.37;57.20;101081.97;5019724;28;1725;-44
2021/09/24 03:17:15;;;;;;;;;;;;;;;21.35;57.20;101090.19;5027474;28;1831;-44
2021/09/24 03:19:43;;;;;;;;;;;;;;;21.36;57.94;101091.84;5021214;28;1687;-45
2021/09/24 03:22:10;;;;;;;;;;;;;;;21.35;57.84;101082.09;5029630;28;1681;-44
2021/09/24 03:24:36;;;;;;;;;;;;;;;21.35;56.94;101071.34;5020389;28;1173;-45
2021/09/24 03:27:03;;;;;;;;;;;;;;;21.35;57.50;101060.59;5019658;28;1969;-44
2021/09/24 03:29:29;;;;;;;;;;;;;;;21.37;56.84;101063.13;5020942;28;1795;-44
2021/09/24 03:31:56;;;;;;;;;;;;;;;21.36;57.09;101054.19;5027635;28;1985;-44
2021/09/24 03:34:22;;;;;;;;;;;;;;;21.37;56.92;101041.63;5024718;28;1723;-44
2021/09/24 03:36:50;;;;;;;;;;;;;;;21.35;57.28;101039.06;5029197;28;1894;-44
2021/09/24 03:39:17;;;;;;;;;;;;;;;21.35;57.21;101028.31;5027645;28;1894;-45
2021/09/24 03:41:44;;;;;;;;;;;;;;;21.37;56.86;101025.47;5021242;28;1793;-45
2021/09/24 03:44:11;;;;;;;;;;;;;;;21.34;57.99;101031.97;5021434;28;1819;-45
2021/09/24 03:46:38;;;;;;;;;;;;;;;21.36;57.30;101038.06;5024437;28;1705;-44
2021/09/24 03:49:05;;;;;;;;;;;;;;;21.35;58.02;101032.84;5025511;28;2068;-43
2021/09/24 03:51:31;;;;;;;;;;;;;;;21.36;56.94;101027.28;5028292;28;1088;-44
2021/09/24 03:53:59;;;;;;;;;;;;;;;21.37;57.01;101031.69;5030895;28;1869;-44
2021/09/24 03:56:26;;;;;;;;;;;;;;;21.34;57.57;101029.28;5029620;28;1641;-45
2021/09/24 03:58:52;;;;;;;;;;;;;;;21.35;57.01;101016.69;5029230;28;1668;-44
2021/09/24 04:01:19;;;;;;;;;;;;;;;21.38;57.10;101030.69;5028566;28;2317;-44
2021/09/24 04:03:45;;;;;;;;;;;;;;;21.40;57.44;101041.31;5027105;28;1605;-44
2021/09/24 04:06:12;;;;;;;;;;;;;;;21.38;57.75;101041.44;5026982;28;1610;-44
2021/09/24 04:08:38;;;;;;;;;;;;;;;21.35;57.76;101017.53;5031535;28;1989;-45
2021/09/24 04:11:06;;;;;;;;;;;;;;;21.40;57.67;101035.94;5024284;28;1766;-44
2021/09/24 04:13:33;;;;;;;;;;;;;;;21.37;58.22;101042.47;5024887;28;1836;-45
2021/09/24 04:15:59;;;;;;;;;;;;;;;21.33;57.93;101018.66;5024387;28;1091;-44
2021/09/24 04:18:26;;;;;;;;;;;;;;;21.35;57.24;101001.41;5030604;28;1596;-44
2021/09/24 04:20:52;;;;;;;;;;;;;;;21.35;57.36;101004.09;5024897;28;2139;-45
2021/09/24 04:23:19;;;;;;;;;;;;;;;21.35;57.47;100992.50;5031401;28;1786;-45
2021/09/24 04:25:45;;;;;;;;;;;;;;;21.34;58.25;100998.84;5025171;28;1791;-44
2021/09/24 04:28:13;;;;;;;;;;;;;;;21.38;57.53;100979.56;5023939;28;1910;-43
2021/09/24 04:30:40;;;;;;;;;;;;;;;21.33;57.14;100975.63;5025269;28;1692;-45
2021/09/24 04:33:06;;;;;;;;;;;;;;;21.32;57.85;100961.34;5030829;28;1805;-44
2021/09/24 04:35:32;;;;;;;;;;;;;;;21.33;56.94;100965.72;5025235;28;1082;-44
2021/09/24 04:37:59;;;;;;;;;;;;;;;21.35;57.26;100962.91;5031412;28;1859;-44
2021/09/24 04:40:25;;;;;;;;;;;;;;;21.38;57.86;100984.13;5026068;28;1561;-45
2021/09/24 04:42:52;;;;;;;;;;;;;;;21.34;57.16;100982.72;5025077;28;1787;-45
2021/09/24 04:45:20;;;;;;;;;;;;;;;21.36;57.67;100976.19;5026131;28;1594;-44
2021/09/24 04:47:46;;;;;;;;;;;;;;;21.35;57.10;100984.44;5024096;28;1987;-44
2021/09/24 04:50:13;;;;;;;;;;;;;;;21.33;57.77;100997.13;5023239;28;2104;-44
2021/09/24 04:52:39;;;;;;;;;;;;;;;21.31;56.84;100994.63;5031706;28;1862;-44
2021/09/24 04:55:06;;;;;;;;;;;;;;;21.34;57.71;100999.69;5025156;28;2290;-45
2021/09/24 04:57:33;;;;;;;;;;;;;;;21.35;57.63;100989.81;5025064;28;2041;-45
2021/09/24 04:59:59;;;;;;;;;;;;;;;21.34;57.20;100991.63;5029134;28;1702;-44
2021/09/24 05:02:27;;;;;;;;;;;;;;;21.30;57.28;100975.94;5021751;28;1816;-44
2021/09/24 05:04:53;;;;;;;;;;;;;;;21.39;56.98;100965.16;5020819;28;1833;-44
2021/09/24 05:07:20;;;;;;;;;;;;;;;21.42;57.74;100977.44;5034020;28;1910;-44
2021/09/24 05:09:46;;;;;;;;;;;;;;;21.41;56.78;100962.31;5028471;28;1761;-44
2021/09/24 05:12:13;;;;;;;;;;;;;;;21.42;56.73;100962.13;5029236;28;1558;-44
2021/09/24 05:14:39;;;;;;;;;;;;;;;21.38;57.73;100968.81;5020870;28;1751;-44
2021/09/24 05:17:06;;;;;;;;;;;;;;;21.36;56.85;100956.50;5031787;28;2006;-44
2021/09/24 05:19:34;;;;;;;;;;;;;;;21.40;57.30;100971.38;5022602;28;1755;-44
2021/09/24 05:22:00;;;;;;;;;;;;;;;21.40;57.25;100988.34;5029830;28;1728;-44
2021/09/24 05:24:27;;;;;;;;;;;;;;;21.35;57.63;100969.13;5031434;28;1660;-44
2021/09/24 05:26:54;;;;;;;;;;;;;;;21.43;57.58;100981.88;5030309;28;1802;-44
2021/09/24 05:29:20;;;;;;;;;;;;;;;21.48;57.32;100995.72;5031346;28;2368;-44
2021/09/24 05:31:47;;;;;;;;;;;;;;;21.32;55.82;101006.22;5024461;28;2004;-45
2021/09/24 05:34:14;;;;;;;;;;;;;;;21.53;56.37;100998.00;5027994;28;1932;-43
2021/09/24 05:36:42;;;;;;;;;;;;;;;21.63;57.40;100996.13;5028736;28;1063;-43
2021/09/24 05:39:08;;;;;;;;;;;;;;;21.63;57.28;100982.66;5023345;28;1757;-44
2021/09/24 05:41:35;;;;;;;;;;;;;;;21.73;57.06;100993.38;5031687;28;1949;-44
2021/09/24 05:44:01;;;;;;;;;;;;;;;21.74;56.92;100985.13;5029921;28;1613;-44
2021/09/24 05:46:28;;;;;;;;;;;;;;;21.70;57.02;100961.38;5030672;28;1712;-44
2021/09/24 05:48:54;;;;;;;;;;;;;;;21.68;57.33;100971.44;5030606;28;1906;-44
2021/09/24 05:51:21;;;;;;;;;;;;;;;21.69;58.12;100987.44;5026272;28;2085;-44
2021/09/24 05:53:48;;;;;;;;;;;;;;;21.72;58.03;100970.97;5028662;28;2275;-45
2021/09/24 05:56:15;;;;;;;;;;;;;;;21.68;58.15;100966.06;5032729;28;2285;-45
2021/09/24 05:58:41;;;;;;;;;;;;;;;21.75;58.41;100959.94;5028591;28;1730;-45
2021/09/24 06:01:08;;;;;;;;;;;;;;;21.78;58.71;100958.78;5031702;28;1937;-45
2021/09/24 06:03:35;;;;;;;;;;;;;;;21.88;58.08;100969.50;5027474;28;1981;-45
2021/09/24 06:06:01;;;;;;;;;;;;;;;21.91;58.17;100970.06;5032364;28;1652;-45
2021/09/24 06:08:28;;;;;;;;;;;;;;;22.08;57.20;100981.84;5028876;28;2059;-45
2021/09/24 06:10:56;;;;;;;;;;;;;;;22.24;57.46;100965.94;5029713;28;1571;-45
2021/09/24 06:13:23;;;;;;;;;;;;;;;22.26;57.51;100964.91;5021797;28;1680;-45
2021/09/24 06:15:49;;;;;;;;;;;;;;;22.26;57.96;100952.28;5031198;28;1675;-45
2021/09/24 06:18:16;;;;;;;;;;;;;;;22.19;59.92;100973.56;5029955;28;1604;-46
2021/09/24 06:20:43;;;;;;;;;;;;;;;22.18;61.13;100976.41;5023641;28;1901;-44
2021/09/24 06:23:09;;;;;;;;;;;;;;;22.23;63.25;100977.66;5030474;28;1537;-44
2021/09/24 06:25:36;;;;;;;;;;;;;;;22.27;60.98;100972.84;5021789;28;1647;-44
2021/09/24 06:28:04;;;;;;;;;;;;;;;22.27;60.23;100975.53;5022960;28;1954;-44
2021/09/24 06:30:31;;;;;;;;;;;;;;;22.33;60.10;100974.09;5027036;28;1530;-44
2021/09/24 06:32:57;;;;;;;;;;;;;;;22.36;59.81;100985.41;5031883;28;1645;-45
2021/09/24 06:35:24;;;;;;;;;;;;;;;22.24;58.76;100976.72;5024872;28;1446;-45
2021/09/24 06:37:50;;;;;;;;;;;;;;;22.17;57.82;100986.34;5028879;28;1769;-45
2021/09/24 06:40:17;;;;;;;;;;;;;;;22.33;57.92;100998.34;5023467;28;2011;-45
2021/09/24 06:42:43;;;;;;;;;;;;;;;22.30;56.93;100995.94;5024036;28;1924;-45
2021/09/24 06:45:18;;;;;;;;;;;;;;;22.38;55.82;101001.41;5028840;28;2070;-46
2021/09/24 06:47:44;;;;;;;;;;;;;;;22.31;56.24;100990.41;5030920;28;1902;-45
2021/09/24 06:50:11;;;;;;;;;;;;;;;22.29;55.86;100997.78;5017882;28;1710;-45
2021/09/24 06:52:38;;;;;;;;;;;;;;;22.24;55.10;100987.47;5027540;28;1900;-45
2021/09/24 06:55:05;;;;;;;;;;;;;;;22.27;55.67;100975.53;5025792;28;1518;-46
2021/09/24 06:57:32;;;;;;;;;;;;;;;22.28;55.17;100992.53;5022242;28;1953;-46
2021/09/24 06:59:58;;;;;;;;;;;;;;;22.24;55.38;100968.63;5026971;28;1495;-45
2021/09/24 07:02:26;;;;;;;;;;;;;;;22.30;54.40;100977.06;5021790;28;1821;-45
2021/09/24 07:04:53;;;;;;;;;;;;;;;22.30;54.93;100969.00;5023545;28;1720;-45
2021/09/24 07:07:19;;;;;;;;;;;;;;;22.28;54.50;100985.31;5031057;28;2046;-46
2021/09/24 07:09:46;;;;;;;;;;;;;;;22.24;54.57;100971.31;5021860;28;1906;-45
2021/09/24 07:12:12;;;;;;;;;;;;;;;22.24;53.77;100975.84;5028485;28;1596;-45
2021/09/24 07:14:39;;;;;;;;;;;;;;;22.20;53.48;100985.19;5021537;28;1567;-45
2021/09/24 07:17:05;;;;;;;;;;;;;;;22.20;53.32;100979.81;5031351;28;1596;-45
2021/09/24 07:19:33;;;;;;;;;;;;;;;22.23;53.08;100980.34;5021311;28;1543;-46
2021/09/24 07:22:00;;;;;;;;;;;;;;;22.29;53.91;100973.53;5029606;28;1597;-45
2021/09/24 07:24:26;;;;;;;;;;;;;;;22.33;54.00;100979.47;5024831;28;2101;-46
2021/09/24 07:26:53;;;;;;;;;;;;;;;22.34;54.13;100965.00;5033445;28;1598;-45
2021/09/24 07:29:20;;;;;;;;;;;;;;;22.34;53.95;100970.38;5028877;28;1909;-45
2021/09/24 07:31:46;;;;;;;;;;;;;;;22.39;54.35;100979.72;5028424;28;1666;-45
2021/09/24 07:34:13;;;;;;;;;;;;;;;22.38;54.61;100972.66;5034624;28;1692;-46
2021/09/24 07:36:41;;;;;;;;;;;;;;;22.41;55.05;100976.88;5036241;28;1378;-45
2021/09/24 07:39:08;;;;;;;;;;;;;;;22.40;55.04;100969.78;5025680;28;1573;-45
2021/09/24 07:41:34;;;;;;;;;;;;;;;22.38;55.31;100979.84;5026317;28;1530;-45
2021/09/24 07:44:03;;;;;;;;;;;;;;;22.37;54.85;100951.22;5026497;28;1655;-45
2021/09/24 07:46:30;;;;;;;;;;;;;;;22.39;55.29;100965.41;5026681;28;2038;-45
2021/09/24 07:48:56;;;;;;;;;;;;;;;22.39;55.20;100957.31;5029232;28;1979;-46
2021/09/24 07:51:23;;;;;;;;;;;;;;;22.41;55.49;100952.63;5035612;28;1584;-46
2021/09/24 07:53:51;;;;;;;;;;;;;;;22.44;55.78;100955.00;5035028;28;1659;-45
2021/09/24 07:56:17;;;;;;;;;;;;;;;22.40;55.81;100949.09;5025250;28;1668;-45
2021/09/24 07:58:44;;;;;;;;;;;;;;;22.42;56.43;100943.50;5027328;28;1615;-46
2021/09/24 08:01:10;;;;;;;;;;;;;;;22.49;55.47;100952.69;5032912;28;1754;-47
2021/09/24 08:03:37;;;;;;;;;;;;;;;22.49;55.88;100946.47;5032351;28;1531;-46
2021/09/24 08:06:04;;;;;;;;;;;;;;;22.57;55.78;100939.28;5032101;28;1735;-46
2021/09/24 08:08:31;;;;;;;;;;;;;;;22.52;56.13;100948.84;5031054;28;2009;-45
2021/09/24 08:10:59;;;;;;;;;;;;;;;22.52;55.95;100946.13;5029778;28;1646;-46
2021/09/24 08:13:25;;;;;;;;;;;;;;;22.53;56.04;100950.53;5024446;28;1689;-46
2021/09/24 08:15:52;;;;;;;;;;;;;;;22.55;55.99;100956.63;5024777;28;1088;-45
2021/09/24 08:18:20;;;;;;;;;;;;;;;22.53;55.78;100937.91;5032557;28;1754;-46
2021/09/24 08:20:47;;;;;;;;;;;;;;;22.56;55.99;100924.13;5029513;28;1507;-45
2021/09/24 08:23:14;;;;;;;;;;;;;;;22.60;56.25;100917.44;5032651;28;1951;-46
2021/09/24 08:25:40;;;;;;;;;;;;;;;22.55;56.07;100930.50;5024359;28;1942;-45
2021/09/24 08:28:08;;;;;;;;;;;;;;;22.56;56.25;100907.97;5024254;28;1975;-44
2021/09/24 08:30:35;;;;;;;;;;;;;;;22.60;56.63;100917.44;5030496;28;1648;-49
2021/09/24 08:33:02;;;;;;;;;;;;;;;22.55;56.39;100911.66;5030869;28;1520;-49
2021/09/24 08:35:29;;;;;;;;;;;;;;;22.58;56.85;100922.13;5030167;28;1555;-48
2021/09/24 08:37:55;;;;;;;;;;;;;;;22.56;56.67;100899.88;5028756;28;1526;-48
2021/09/24 08:40:23;;;;;;;;;;;;;;;22.40;56.91;100908.66;5029387;28;1561;-49
2021/09/24 08:42:49;;;;;;;;;;;;;;;22.52;56.50;100887.72;5028484;28;1501;-49
2021/09/24 08:45:23;;;;;;;;;;;;;;;22.58;55.88;100892.47;5029169;28;1704;-49
2021/09/24 08:47:50;;;;;;;;;;;;;;;22.53;56.30;100892.09;5032251;28;1617;-49
2021/09/24 08:50:16;;;;;;;;;;;;;;;22.57;56.32;100868.38;5023809;28;1914;-49
2021/09/24 08:52:43;;;;;;;;;;;;;;;22.54;55.80;100856.06;5031854;28;1588;-49
2021/09/24 08:55:11;;;;;;;;;;;;;;;22.53;56.33;100850.81;5031219;28;1522;-49
2021/09/24 08:57:38;;;;;;;;;;;;;;;22.51;56.18;100855.53;5027219;28;1602;-49
2021/09/24 09:00:05;;;;;;;;;;;;;;;22.51;56.46;100864.44;5031191;28;1579;-49
2021/09/24 09:02:50;;;;;;;;;;;;;;;22.52;56.49;100859.91;5030631;28;1795;-49
2021/09/24 09:05:17;;;;;;;;;;;;;;;22.50;57.11;100857.38;5029121;28;1471;-50
2021/09/24 09:07:45;;;;;;;;;;;;;;;22.53;56.53;100851.66;5030465;28;1578;-49
2021/09/24 09:10:11;;;;;;;;;;;;;;;22.53;56.74;100846.28;5029790;28;1972;-49
2021/09/24 09:12:38;;;;;;;;;;;;;;;22.49;56.57;100823.34;5030327;28;1596;-49
2021/09/24 09:15:06;;;;;;;;;;;;;;;22.48;56.81;100845.03;5029908;28;1542;-49
2021/09/24 09:17:35;;;;;;;;;;;;;;;22.49;56.98;100844.06;5022829;28;1740;-50
2021/09/24 09:20:08;;;;;;;;;;;;;;;22.43;56.39;100851.75;5025117;28;1757;-50
2021/09/24 09:22:35;;;;;;;;;;;;;;;22.50;56.51;100835.81;5027772;28;1838;-49
2021/09/24 09:25:01;;;;;;;;;;;;;;;22.59;56.32;100824.09;5026650;28;1570;-50
2021/09/24 09:27:28;;;;;;;;;;;;;;;22.54;56.82;100833.63;5032256;28;1685;-49
2021/09/24 09:29:58;;;;;;;;;;;;;;;22.53;57.43;100838.19;5028772;28;1906;-49
2021/09/24 09:32:25;;;;;;;;;;;;;;;22.50;57.67;100830.44;5027900;28;1639;-49
2021/09/24 09:34:53;;;;;;;;;;;;;;;22.49;57.20;100839.50;5029733;28;1933;-49
2021/09/24 09:37:21;;;;;;;;;;;;;;;22.45;57.58;100821.97;5030631;28;1593;-50
2021/09/24 09:40:01;;;;;;;;;;;;;;;22.48;57.31;100824.31;5025578;28;1456;-47
2021/09/24 09:42:31;;;;;;;;;;;;;;;22.52;55.60;100812.25;5025288;28;1620;-46
2021/09/24 09:44:58;;;;;;;;;;;;;;;22.54;55.67;100788.69;5028430;28;1443;-49
2021/09/24 09:47:29;;;;;;;;;;;;;;;22.68;56.18;100810.66;5029284;28;1866;-50
2021/09/24 09:50:05;;;;;;;;;;;;;;;22.53;55.40;100811.25;5031008;28;2112;-49
2021/09/24 09:52:33;;;;;;;;;;;;;;;22.44;56.15;100793.31;5015949;28;1935;-49
2021/09/24 09:55:00;;;;;;;;;;;;;;;22.42;55.04;100789.94;5027725;28;2103;-50
2021/09/24 09:57:27;;;;;;;;;;;;;;;22.42;54.87;100780.03;5030469;28;1370;-50
2021/09/24 09:59:55;;;;;;;;;;;;;;;22.43;55.32;100788.94;5029126;28;1933;-50
2021/09/24 10:02:22;;;;;;;;;;;;;;;22.43;54.47;100786.25;5028881;28;1526;-50
2021/09/24 10:04:51;;;;;;;;;;;;;;;22.42;54.13;100787.22;5031858;28;1628;-50
2021/09/24 10:07:19;;;;;;;;;;;;;;;22.36;53.49;100769.88;5030584;28;2197;-50
2021/09/24 10:09:47;;;;;;;;;;;;;;;22.35;54.46;100780.81;5032013;28;1980;-50
2021/09/24 10:12:17;;;;;;;;;;;;;;;22.36;54.44;100786.03;5029766;28;1700;-50
2021/09/24 10:14:44;;;;;;;;;;;;;;;22.39;52.57;100780.31;5023235;28;1601;-50
2021/09/24 10:17:10;;;;;;;;;;;;;;;22.39;53.05;100780.31;5021622;28;1775;-50
2021/09/24 10:19:37;;;;;;;;;;;;;;;22.38;53.13;100762.47;5022422;28;1688;-50
2021/09/24 10:22:04;;;;;;;;;;;;;;;22.42;53.11;100762.97;5024572;28;1107;-49
2021/09/24 10:24:33;;;;;;;;;;;;;;;22.46;53.18;100753.56;5031533;28;1878;-49
2021/09/24 10:27:00;;;;;;;;;;;;;;;22.42;53.06;100741.44;5031116;28;2271;-49
2021/09/24 10:29:29;;;;;;;;;;;;;;;22.48;53.66;100756.13;5028258;28;1985;-50
2021/09/24 10:31:57;;;;;;;;;;;;;;;22.45;53.48;100743.81;5022346;28;1602;-49
2021/09/24 10:34:29;;;;;;;;;;;;;;;22.48;53.80;100732.72;5025990;28;1826;-49
2021/09/24 10:36:56;;;;;;;;;;;;;;;22.42;53.71;100730.66;5029897;28;1056;-49
2021/09/24 10:39:35;;;;;;;;;;;;;;;22.45;53.98;100735.72;5021717;28;1896;-50
2021/09/24 10:42:35;;;;;;;;;;;;;;;22.47;54.07;100725.66;5022519;28;1916;-50
2021/09/24 10:45:03;;;;;;;;;;;;;;;22.48;54.06;100727.31;5024429;28;1565;-49
2021/09/24 10:48:00;;;;;;;;;;;;;;;22.46;54.46;100705.06;5027455;28;1906;-50
2021/09/24 10:50:59;;;;;;;;;;;;;;;22.46;54.69;100704.25;4984769;28;1910;-49
2021/09/24 10:53:27;;;;;;;;;;;;;;;22.50;54.72;100694.81;5027149;28;2180;-50
2021/09/24 10:56:12;;;;;;;;;;;;;;;22.47;54.44;100682.53;5025679;28;1548;-50
2021/09/24 10:58:41;;;;;;;;;;;;;;;22.48;54.45;100649.16;5027821;28;1632;-50
2021/09/24 11:01:11;;;;;;;;;;;;;;;22.46;54.94;100672.75;5032055;28;1729;-49
2021/09/24 11:03:50;;;;;;;;;;;;;;;22.41;53.91;100661.63;5031751;28;1628;-49
2021/09/24 11:06:17;;;;;;;;;;;;;;;22.51;54.46;100658.81;5036939;28;1483;-48
2021/09/24 11:08:44;;;;;;;;;;;;;;;22.56;53.83;100678.88;5034024;28;2162;-49
2021/09/24 11:11:11;;;;;;;;;;;;;;;22.48;54.50;100654.56;5036083;28;1967;-50
2021/09/24 11:13:42;;;;;;;;;;;;;;;22.53;52.98;100649.53;5032290;28;1428;-49
2021/09/24 11:16:10;;;;;;;;;;;;;;;22.54;54.38;100643.16;5025773;28;1867;-49
2021/09/24 11:18:48;;;;;;;;;;;;;;;22.50;54.62;100625.63;5032812;28;1787;-49
2021/09/24 11:21:14;;;;;;;;;;;;;;;22.46;54.87;100616.16;5026225;28;1673;-50
2021/09/24 11:23:41;;;;;;;;;;;;;;;22.52;54.17;100620.94;5032822;28;1692;-49
2021/09/24 11:26:08;;;;;;;;;;;;;;;22.54;54.78;100621.59;5027536;28;1755;-49
2021/09/24 11:28:35;;;;;;;;;;;;;;;22.44;55.02;100624.44;5026659;28;1598;-49
2021/09/24 11:31:03;;;;;;;;;;;;;;;22.42;54.98;100622.88;5025237;28;2226;-49
2021/09/24 11:33:39;;;;;;;;;;;;;;;22.46;55.06;100629.63;5025608;28;1606;-49
2021/09/24 11:36:06;;;;;;;;;;;;;;;22.47;54.78;100614.31;5023884;28;1597;-49
2021/09/24 11:38:33;;;;;;;;;;;;;;;22.49;57.31;100606.94;5030190;28;1711;-49
2021/09/24 11:40:59;;;;;;;;;;;;;;;22.51;57.45;100599.53;5026565;28;1451;-50
2021/09/24 11:43:27;;;;;;;;;;;;;;;22.61;56.79;100611.84;5024555;28;2255;-50
2021/09/24 11:45:54;;;;;;;;;;;;;;;22.60;56.23;100596.69;5029347;28;1598;-50
2021/09/24 11:48:32;;;;;;;;;;;;;;;22.61;56.17;100602.91;5034537;28;2185;-50
2021/09/24 11:51:09;;;;;;;;;;;;;;;22.59;55.71;100583.38;5030532;28;1985;-49
2021/09/24 11:53:43;;;;;;;;;;;;;;;22.52;56.22;100577.81;5029620;28;1552;-49
2021/09/24 11:56:10;;;;;;;;;;;;;;;22.49;56.56;100575.44;5026557;28;1544;-50
2021/09/24 11:58:36;;;;;;;;;;;;;;;22.52;56.57;100585.88;5026319;28;2260;-50
2021/09/24 12:01:03;;;;;;;;;;;;;;;22.47;56.32;100557.75;5030746;28;1903;-49
2021/09/24 12:03:30;;;;;;;;;;;;;;;22.48;56.82;100557.56;5032440;28;1507;-49
2021/09/24 12:06:01;;;;;;;;;;;;;;;22.49;56.58;100564.66;5026683;28;1472;-50
2021/09/24 12:08:29;;;;;;;;;;;;;;;22.53;55.93;100554.38;5021112;28;1829;-49
2021/09/24 12:10:56;;;;;;;;;;;;;;;22.61;56.62;100549.84;5026005;28;1902;-41
2021/09/24 12:13:22;;;;;;;;;;;;;;;22.72;56.24;100559.50;5026457;28;1554;-41
2021/09/24 12:15:50;;;;;;;;;;;;;;;22.65;56.31;100550.38;5035942;28;1461;-41
2021/09/24 12:18:16;;;;;;;;;;;;;;;22.55;56.58;100542.44;5027760;28;1514;-41
2021/09/24 12:20:43;;;;;;;;;;;;;;;22.64;57.21;100519.88;5032423;28;1793;-42
2021/09/24 12:23:11;;;;;;;;;;;;;;;22.61;57.52;100520.22;5032662;28;1502;-41
2021/09/24 12:25:38;;;;;;;;;;;;;;;22.58;58.30;100487.34;5029011;28;1674;-43
2021/09/24 12:28:08;;;;;;;;;;;;;;;22.55;58.45;100499.31;5031712;28;1618;-41
2021/09/24 12:30:38;;;;;;;;;;;;;;;22.59;59.69;100487.19;5032978;28;1977;-41
2021/09/24 12:33:09;;;;;;;;;;;;;;;22.61;59.01;100498.66;5025962;28;1517;-42
2021/09/24 12:35:36;;;;;;;;;;;;;;;22.59;59.23;100473.72;5031320;28;1537;-41
2021/09/24 12:38:02;;;;;;;;;;;;;;;22.61;59.33;100474.38;5032127;28;1578;-41
2021/09/24 12:40:31;;;;;;;;;;;;;;;22.59;59.22;100489.88;5028132;28;1647;-41
2021/09/24 12:42:59;;;;;;;;;;;;;;;22.57;58.19;100491.06;5023866;28;1800;-41
2021/09/24 12:45:27;;;;;;;;;;;;;;;22.56;59.90;100497.44;5032239;28;1703;-43
2021/09/24 12:47:54;;;;;;;;;;;;;;;22.59;61.54;100486.34;5024189;28;1572;-42
2021/09/24 12:50:21;;;;;;;;;;;;;;;22.59;60.61;100468.31;5023936;28;1910;-41
2021/09/24 12:52:47;;;;;;;;;;;;;;;22.73;60.73;100463.28;5032030;28;1740;-42
2021/09/24 12:55:14;;;;;;;;;;;;;;;22.73;59.99;100457.91;5024014;28;1819;-43